Time;durP1;ratioP1;P1;durP2;ratioP2;P2;SDS_P1;SDS_P2;PMS_P1;PMS_P2;Temp;Humidity;BMP_temperature;BMP_pressure;BME280_temperature;BME280_humidity;BME280_pressure;Samples;Min_cycle;Max_cycle;Signal;HPM_P1;HPM_P2
2021/05/17 00:01:28;;;;;;;;;;;;;;;22.10;61.47;100687.84;5152277;27;1358;-71
2021/05/17 00:04:14;;;;;;;;;;;;;;;22.10;61.52;100692.34;5152600;27;946;-73
2021/05/17 00:07:01;;;;;;;;;;;;;;;22.10;61.49;100690.50;5152255;27;1350;-72
2021/05/17 00:09:47;;;;;;;;;;;;;;;22.09;61.51;100688.84;5152223;27;1905;-71
2021/05/17 00:12:33;;;;;;;;;;;;;;;22.09;61.55;100680.03;5151019;27;694;-70
2021/05/17 00:15:20;;;;;;;;;;;;;;;22.09;61.63;100688.84;5151285;27;1396;-70
2021/05/17 00:18:06;;;;;;;;;;;;;;;22.09;61.72;100683.53;5136260;27;1046;-71
2021/05/17 00:20:52;;;;;;;;;;;;;;;22.09;61.55;100698.59;5152066;27;1267;-71
2021/05/17 00:23:38;;;;;;;;;;;;;;;22.09;61.76;100699.44;5152063;27;1142;-71
2021/05/17 00:26:24;;;;;;;;;;;;;;;22.07;61.62;100690.72;5152244;27;1365;-70
2021/05/17 00:29:09;;;;;;;;;;;;;;;22.08;61.64;100691.59;5151794;27;1062;-70
2021/05/17 00:31:55;;;;;;;;;;;;;;;22.09;61.83;100699.44;5135942;27;1902;-75
2021/05/17 00:34:41;;;;;;;;;;;;;;;22.09;61.65;100695.94;5151844;27;965;-74
2021/05/17 00:37:26;;;;;;;;;;;;;;;22.07;61.85;100698.69;5132390;27;1065;-73
2021/05/17 00:40:13;;;;;;;;;;;;;;;22.08;61.98;100702.19;5131072;27;1374;-72
2021/05/17 00:42:58;;;;;;;;;;;;;;;22.07;61.64;100706.66;5130727;27;1035;-72
2021/05/17 00:45:44;;;;;;;;;;;;;;;22.08;61.95;100704.84;5115151;27;1403;-72
2021/05/17 00:48:29;;;;;;;;;;;;;;;22.07;61.93;100706.66;5130833;27;1697;-73
2021/05/17 00:51:15;;;;;;;;;;;;;;;22.06;61.69;100699.66;5131254;27;1980;-73
2021/05/17 00:54:01;;;;;;;;;;;;;;;22.07;61.76;100705.81;5115597;27;956;-73
2021/05/17 00:56:46;;;;;;;;;;;;;;;22.06;61.81;100710.28;5130825;27;1292;-73
2021/05/17 00:59:32;;;;;;;;;;;;;;;22.07;61.97;100711.13;5130950;27;1087;-73
2021/05/17 01:02:17;;;;;;;;;;;;;;;22.05;61.84;100708.56;5130269;27;1410;-73
2021/05/17 01:05:04;;;;;;;;;;;;;;;22.07;61.70;100711.13;5130590;27;1287;-74
2021/05/17 01:07:50;;;;;;;;;;;;;;;22.05;61.82;100697.97;5130086;27;1071;-73
2021/05/17 01:10:40;;;;;;;;;;;;;;;22.05;62.11;100708.56;5129892;27;1910;-74
2021/05/17 01:13:25;;;;;;;;;;;;;;;22.05;62.12;100705.91;5130441;27;919;-72
2021/05/17 01:16:11;;;;;;;;;;;;;;;22.06;61.99;100710.28;5130272;27;1211;-72
2021/05/17 01:18:57;;;;;;;;;;;;;;;22.06;61.82;100706.78;5129932;27;868;-72
2021/05/17 01:21:48;;;;;;;;;;;;;;;22.05;62.03;100703.28;5130196;27;1303;-70
2021/05/17 01:24:34;;;;;;;;;;;;;;;22.04;62.16;100706.88;5130299;27;1045;-70
2021/05/17 01:27:19;;;;;;;;;;;;;;;22.04;62.08;100714.81;5129137;27;1267;-71
2021/05/17 01:30:05;;;;;;;;;;;;;;;22.05;61.89;100718.34;5130385;27;1965;-71
2021/05/17 01:32:55;;;;;;;;;;;;;;;22.04;61.90;100709.53;5129939;27;1033;-72
2021/05/17 01:35:41;;;;;;;;;;;;;;;22.04;62.15;100703.41;5133532;27;1293;-72
2021/05/17 01:38:27;;;;;;;;;;;;;;;22.04;61.75;100712.19;5134970;27;956;-72
2021/05/17 01:41:14;;;;;;;;;;;;;;;22.04;61.91;100714.81;5150234;27;1271;-73
2021/05/17 01:43:59;;;;;;;;;;;;;;;22.04;61.80;100714.81;5134531;27;1192;-74
2021/05/17 01:46:45;;;;;;;;;;;;;;;22.04;61.92;100716.66;5150158;27;1298;-71
2021/05/17 01:49:31;;;;;;;;;;;;;;;22.03;61.90;100721.09;5149923;27;1583;-73
2021/05/17 01:52:17;;;;;;;;;;;;;;;22.03;61.81;100726.41;5134953;27;1397;-74
2021/05/17 01:55:05;;;;;;;;;;;;;;;22.03;62.02;100733.53;5133979;27;1292;-74
2021/05/17 01:58:05;;;;;;;;;;;;;;;22.03;62.02;100739.69;5134308;27;1042;-73
2021/05/17 02:00:51;;;;;;;;;;;;;;;22.02;61.99;100732.66;5149037;27;1293;-74
2021/05/17 02:03:37;;;;;;;;;;;;;;;22.03;62.00;100742.34;5150155;27;1053;-73
2021/05/17 02:06:23;;;;;;;;;;;;;;;22.03;62.00;100738.81;5149968;27;1323;-72
2021/05/17 02:09:10;;;;;;;;;;;;;;;22.02;61.77;100735.31;5149613;27;1090;-74
2021/05/17 02:11:55;;;;;;;;;;;;;;;22.02;61.97;100740.63;5149910;27;1941;-74
2021/05/17 02:14:42;;;;;;;;;;;;;;;22.02;61.77;100740.63;5150609;27;952;-73
2021/05/17 02:17:28;;;;;;;;;;;;;;;22.02;61.97;100740.63;5150204;27;635;-73
2021/05/17 02:20:15;;;;;;;;;;;;;;;22.01;61.91;100738.91;5149588;27;1283;-73
2021/05/17 02:23:01;;;;;;;;;;;;;;;22.02;61.62;100731.81;5150013;27;959;-73
2021/05/17 02:25:48;;;;;;;;;;;;;;;22.01;61.96;100754.84;5149253;27;1294;-73
2021/05/17 02:28:37;;;;;;;;;;;;;;;22.01;61.76;100754.84;5149515;27;1154;-73
2021/05/17 02:31:23;;;;;;;;;;;;;;;22.01;61.66;100754.84;5149287;27;1968;-72
2021/05/17 02:34:08;;;;;;;;;;;;;;;22.01;61.94;100754.84;5149596;27;914;-74
2021/05/17 02:36:53;;;;;;;;;;;;;;;22.00;61.72;100745.19;5134718;27;1263;-73
2021/05/17 02:39:39;;;;;;;;;;;;;;;22.01;61.68;100746.06;5113630;27;1116;-73
2021/05/17 02:42:26;;;;;;;;;;;;;;;21.99;61.88;100751.44;5128934;27;1294;-73
2021/05/17 02:45:13;;;;;;;;;;;;;;;21.99;61.81;100756.75;5128516;27;1287;-73
2021/05/17 02:48:00;;;;;;;;;;;;;;;21.99;61.54;100762.06;5128862;27;1088;-73
2021/05/17 02:50:46;;;;;;;;;;;;;;;22.00;61.89;100773.53;5128247;27;1959;-74
2021/05/17 02:53:37;;;;;;;;;;;;;;;21.99;61.93;100767.38;5128682;27;1048;-74
2021/05/17 02:56:45;;;;;;;;;;;;;;;21.99;61.90;100770.00;5127922;27;1239;-74
2021/05/17 02:59:36;;;;;;;;;;;;;;;21.98;61.57;100776.25;5112767;28;1092;-70
2021/05/17 03:02:25;;;;;;;;;;;;;;;21.97;61.57;100766.63;5128180;28;1315;-70
2021/05/17 03:05:12;;;;;;;;;;;;;;;21.99;61.81;100777.97;5128384;28;1373;-70
2021/05/17 03:08:03;;;;;;;;;;;;;;;21.97;61.62;100779.91;5128290;28;1070;-70
2021/05/17 03:10:48;;;;;;;;;;;;;;;21.97;61.74;100782.53;5128310;28;1910;-70
2021/05/17 03:13:34;;;;;;;;;;;;;;;21.97;61.76;100785.19;5127991;28;1057;-73
2021/05/17 03:16:24;;;;;;;;;;;;;;;21.97;61.61;100789.66;5129014;28;1392;-71
2021/05/17 03:19:10;;;;;;;;;;;;;;;21.98;61.57;100786.06;5128405;28;1159;-72
2021/05/17 03:21:56;;;;;;;;;;;;;;;21.97;61.53;100790.50;5127783;28;1318;-70
2021/05/17 03:24:44;;;;;;;;;;;;;;;21.96;61.75;100791.44;5127929;28;1031;-68
2021/05/17 03:27:29;;;;;;;;;;;;;;;21.97;61.56;100797.59;5128403;28;733;-74
2021/05/17 03:30:15;;;;;;;;;;;;;;;21.97;61.57;100806.41;5128092;28;1243;-74
2021/05/17 03:33:01;;;;;;;;;;;;;;;21.96;61.64;100811.81;5127927;28;1061;-74
2021/05/17 03:35:46;;;;;;;;;;;;;;;21.95;61.52;100816.25;5132663;27;1321;-74
2021/05/17 03:38:31;;;;;;;;;;;;;;;21.97;61.72;100821.47;5149542;27;1072;-71
2021/05/17 03:41:16;;;;;;;;;;;;;;;21.96;61.72;100815.31;5148893;27;1212;-71
2021/05/17 03:44:02;;;;;;;;;;;;;;;21.96;61.49;100817.13;5148755;27;969;-71
2021/05/17 03:46:48;;;;;;;;;;;;;;;21.95;61.57;100824.22;5148532;27;1260;-70
2021/05/17 03:49:33;;;;;;;;;;;;;;;21.96;61.72;100827.72;5149695;27;1527;-70
2021/05/17 03:52:18;;;;;;;;;;;;;;;21.95;61.58;100831.31;5152285;27;1886;-70
2021/05/17 03:55:05;;;;;;;;;;;;;;;21.94;61.73;100817.25;5152226;27;1261;-70
2021/05/17 03:57:50;;;;;;;;;;;;;;;21.94;61.67;100827.00;5152403;27;1034;-71
2021/05/17 04:00:35;;;;;;;;;;;;;;;21.95;61.46;100828.66;5136806;27;1358;-70
2021/05/17 04:03:26;;;;;;;;;;;;;;;21.95;61.67;100841.94;5152525;27;1104;-71
2021/05/17 04:15:11;;;;;;;;;;;;;;;21.93;61.63;100860.63;5152155;27;1266;-71
2021/05/17 04:17:56;;;;;;;;;;;;;;;21.93;61.42;100863.28;5152187;27;1045;-73
2021/05/17 04:20:42;;;;;;;;;;;;;;;21.93;61.70;100868.56;5151865;27;1300;-74
2021/05/17 04:23:29;;;;;;;;;;;;;;;21.93;61.54;100875.69;5152046;27;1144;-72
2021/05/17 04:26:14;;;;;;;;;;;;;;;21.93;61.70;100880.97;5152200;27;1357;-73
2021/05/17 04:28:59;;;;;;;;;;;;;;;21.92;61.34;100882.78;5152038;27;1117;-73
2021/05/17 04:31:46;;;;;;;;;;;;;;;21.92;61.32;100877.47;5135778;27;1909;-74
2021/05/17 04:34:32;;;;;;;;;;;;;;;21.92;61.53;100877.47;5135708;27;1114;-74
2021/05/17 04:37:17;;;;;;;;;;;;;;;21.91;61.57;100885.56;5134231;27;1283;-74
2021/05/17 04:40:03;;;;;;;;;;;;;;;21.91;61.29;100894.34;5130846;27;1200;-74
2021/05/17 04:42:49;;;;;;;;;;;;;;;21.90;61.59;100895.31;5130660;27;1140;-74
2021/05/17 04:45:34;;;;;;;;;;;;;;;21.92;61.36;100887.22;5130656;27;1283;-73
2021/05/17 04:48:20;;;;;;;;;;;;;;;21.91;61.63;100897.00;5131161;27;1186;-73
2021/05/17 04:51:05;;;;;;;;;;;;;;;21.90;61.52;100900.59;5131050;27;1971;-73
2021/05/17 04:53:51;;;;;;;;;;;;;;;21.90;61.34;100900.59;5130977;27;1092;-73
2021/05/17 04:56:36;;;;;;;;;;;;;;;21.90;61.40;100897.97;5130616;27;1275;-71
2021/05/17 04:59:21;;;;;;;;;;;;;;;21.91;61.18;100888.19;5130520;27;1050;-71
2021/05/17 05:02:07;;;;;;;;;;;;;;;21.90;61.49;100899.75;5135229;27;1414;-70
2021/05/17 05:04:53;;;;;;;;;;;;;;;21.92;61.52;100903.13;5116749;27;1162;-68
2021/05/17 05:07:38;;;;;;;;;;;;;;;21.91;61.31;100896.16;5130282;27;670;-73
2021/05/17 05:10:24;;;;;;;;;;;;;;;21.91;61.22;100902.31;5130015;27;1180;-73
2021/05/17 05:13:10;;;;;;;;;;;;;;;21.91;61.48;100912.06;5130074;27;1168;-73
2021/05/17 05:15:55;;;;;;;;;;;;;;;21.91;61.55;100915.56;5130229;27;1288;-72
2021/05/17 05:18:40;;;;;;;;;;;;;;;21.91;61.25;100914.72;5114781;27;945;-73
2021/05/17 05:21:26;;;;;;;;;;;;;;;21.90;61.13;100921.81;5116144;27;1399;-70
2021/05/17 05:24:11;;;;;;;;;;;;;;;21.90;61.22;100932.44;5122653;27;1088;-69
2021/05/17 05:27:17;;;;;;;;;;;;;;;21.91;61.18;100941.25;5129691;27;1283;-72
2021/05/17 05:30:13;;;;;;;;;;;;;;;21.90;61.40;100935.09;5129494;27;1209;-71
2021/05/17 05:33:17;;;;;;;;;;;;;;;21.90;61.37;100943.03;5113220;27;1886;-70
2021/05/17 05:36:03;;;;;;;;;;;;;;;21.90;61.46;100951.00;5135900;27;1306;-70
2021/05/17 05:38:48;;;;;;;;;;;;;;;21.91;61.20;100959.81;5149711;27;895;-69
2021/05/17 05:41:34;;;;;;;;;;;;;;;21.91;61.20;100959.81;5149294;27;1259;-68
2021/05/17 05:44:19;;;;;;;;;;;;;;;21.91;61.43;100960.66;5149566;27;1167;-72
2021/05/17 05:47:05;;;;;;;;;;;;;;;21.91;61.43;100962.47;5149290;27;1314;-72
2021/05/17 05:49:51;;;;;;;;;;;;;;;21.90;61.25;100974.88;5147040;27;1457;-71
2021/05/17 05:52:37;;;;;;;;;;;;;;;21.91;61.36;100975.72;5137394;27;1926;-70
2021/05/17 05:55:22;;;;;;;;;;;;;;;21.94;62.57;100980.81;5128628;27;1239;-71
2021/05/17 05:58:09;;;;;;;;;;;;;;;21.98;61.75;100980.50;5128103;27;1190;-73
2021/05/17 06:00:54;;;;;;;;;;;;;;;21.95;61.31;100977.19;5130918;27;1525;-75
2021/05/17 06:03:40;;;;;;;;;;;;;;;21.96;62.36;100979.75;5141169;27;1039;-71
2021/05/17 06:06:25;;;;;;;;;;;;;;;21.94;61.70;100992.28;5134898;27;1236;-71
2021/05/17 06:09:10;;;;;;;;;;;;;;;21.93;61.24;100993.22;5149889;27;1049;-72
2021/05/17 06:11:56;;;;;;;;;;;;;;;21.92;61.72;100990.66;5148174;27;1905;-68
2021/05/17 06:14:41;;;;;;;;;;;;;;;21.92;61.62;100995.97;5149858;27;1094;-68
2021/05/17 06:17:27;;;;;;;;;;;;;;;21.91;61.34;100992.50;5149859;27;608;-69
2021/05/17 06:20:13;;;;;;;;;;;;;;;21.92;61.47;101002.13;5149574;27;1290;-68
2021/05/17 06:22:58;;;;;;;;;;;;;;;21.91;61.54;101003.09;5149252;27;924;-68
2021/05/17 06:25:44;;;;;;;;;;;;;;;21.93;61.65;101003.84;5141930;27;1413;-71
2021/05/17 06:28:29;;;;;;;;;;;;;;;21.93;61.61;101011.78;5133547;27;1126;-70
2021/05/17 06:31:16;;;;;;;;;;;;;;;21.93;61.63;101011.78;5127995;27;1909;-70
2021/05/17 06:34:01;;;;;;;;;;;;;;;21.92;61.53;101020.69;5128304;27;1061;-71
2021/05/17 06:36:47;;;;;;;;;;;;;;;21.99;61.62;101031.75;5141273;27;1267;-70
2021/05/17 06:39:32;;;;;;;;;;;;;;;21.99;61.95;101023.78;5149013;27;1136;-71
2021/05/17 06:42:18;;;;;;;;;;;;;;;21.92;61.61;101017.19;5147767;27;1346;-71
2021/05/17 06:45:09;;;;;;;;;;;;;;;21.95;61.86;101025.78;5148177;27;1275;-72
2021/05/17 06:47:55;;;;;;;;;;;;;;;21.95;61.85;101027.59;5147833;27;1089;-72
2021/05/17 06:50:40;;;;;;;;;;;;;;;21.94;61.93;101041.81;5148260;27;1412;-72
2021/05/17 06:53:26;;;;;;;;;;;;;;;21.94;61.91;101024.13;5148158;27;1917;-73
2021/05/17 06:56:23;;;;;;;;;;;;;;;21.93;61.66;101027.72;5147972;27;1192;-72
2021/05/17 06:59:14;;;;;;;;;;;;;;;21.94;61.88;101040.03;5148217;27;1120;-73
2021/05/17 07:02:00;;;;;;;;;;;;;;;21.92;61.60;101049.00;5132565;27;1275;-73
2021/05/17 07:04:46;;;;;;;;;;;;;;;21.94;61.72;101045.34;5148737;27;1080;-74
2021/05/17 07:13:42;;;;;;;;;;;;;;;21.85;61.21;101067.13;5148252;27;909;-74
2021/05/17 07:16:27;;;;;;;;;;;;;;;21.81;60.82;101060.28;5148890;27;1294;-74
2021/05/17 07:19:13;;;;;;;;;;;;;;;21.78;60.40;101060.50;5149146;27;1025;-73
2021/05/17 07:25:03;;;;;;;;;;;;;;;21.75;60.51;101076.59;5151280;27;1316;-69
2021/05/17 07:27:49;;;;;;;;;;;;;;;21.80;60.28;101077.16;5152831;27;1033;-70
2021/05/17 07:30:34;;;;;;;;;;;;;;;21.78;59.50;101079.91;5152784;27;1283;-72
2021/05/17 07:33:20;;;;;;;;;;;;;;;21.77;60.04;101090.59;5136889;27;1902;-73
2021/05/17 07:36:06;;;;;;;;;;;;;;;21.74;59.55;101093.44;5144852;27;1306;-71
2021/05/17 07:38:52;;;;;;;;;;;;;;;21.51;57.33;101081.69;5132141;27;1067;-71
2021/05/17 07:41:37;;;;;;;;;;;;;;;21.33;55.58;101081.97;5131640;27;1295;-72
2021/05/17 07:44:23;;;;;;;;;;;;;;;21.12;55.76;101086.81;5131816;27;1094;-73
2021/05/17 07:47:08;;;;;;;;;;;;;;;21.10;55.37;101068.34;5132204;27;1280;-71
2021/05/17 07:49:54;;;;;;;;;;;;;;;21.08;54.94;101079.97;5131945;27;1458;-73
2021/05/17 07:52:39;;;;;;;;;;;;;;;20.96;54.82;101086.84;5131985;27;1964;-73
2021/05/17 07:55:25;;;;;;;;;;;;;;;20.90;54.26;101079.28;5131762;27;1305;-74
2021/05/17 07:58:11;;;;;;;;;;;;;;;21.00;54.25;101083.09;5131558;27;1036;-73
2021/05/17 08:00:56;;;;;;;;;;;;;;;21.17;53.81;101082.06;5131608;27;1377;-69
2021/05/17 08:03:42;;;;;;;;;;;;;;;21.11;52.91;101080.66;5131942;27;1222;-71
2021/05/17 08:06:27;;;;;;;;;;;;;;;20.93;52.81;101089.69;5131366;27;1374;-71
2021/05/17 08:09:12;;;;;;;;;;;;;;;20.85;52.98;101083.16;5131199;27;1128;-70
2021/05/17 08:11:58;;;;;;;;;;;;;;;20.79;52.45;101088.81;5133123;27;1973;-69
2021/05/17 08:14:43;;;;;;;;;;;;;;;20.85;52.50;101099.06;5141835;27;1497;-68
2021/05/17 08:17:28;;;;;;;;;;;;;;;20.77;52.23;101096.00;5118412;27;885;-68
2021/05/17 08:20:14;;;;;;;;;;;;;;;20.78;52.37;101095.91;5131428;27;1320;-69
2021/05/17 08:23:00;;;;;;;;;;;;;;;20.70;52.75;101106.13;5115044;27;1131;-70
2021/05/17 08:25:47;;;;;;;;;;;;;;;20.72;53.04;101112.16;5130638;27;1286;-69
2021/05/17 08:28:33;;;;;;;;;;;;;;;20.71;52.88;101113.09;5135231;27;1383;-70
2021/05/17 08:31:22;;;;;;;;;;;;;;;20.68;52.64;101113.28;5131585;27;1314;-69
2021/05/17 08:34:07;;;;;;;;;;;;;;;20.66;52.94;101120.47;5131080;27;1069;-70
2021/05/17 08:36:52;;;;;;;;;;;;;;;20.73;52.79;101116.53;5141804;27;1271;-69
2021/05/17 08:39:37;;;;;;;;;;;;;;;20.67;52.93;101106.31;5131026;27;1133;-67
2021/05/17 08:42:27;;;;;;;;;;;;;;;20.73;52.68;101106.75;5130447;27;1385;-67
2021/05/17 08:45:14;;;;;;;;;;;;;;;20.76;52.89;101104.91;5130517;27;1381;-67
2021/05/17 08:47:59;;;;;;;;;;;;;;;20.79;52.89;101096.78;5130451;27;1132;-69
2021/05/17 08:50:44;;;;;;;;;;;;;;;20.94;52.86;101099.34;5130450;27;1626;-70
2021/05/17 08:53:29;;;;;;;;;;;;;;;21.05;52.84;101107.50;5129946;27;1938;-69
2021/05/17 08:56:16;;;;;;;;;;;;;;;21.12;53.17;101102.69;5130065;27;1351;-68
2021/05/17 08:59:03;;;;;;;;;;;;;;;21.16;53.33;101099.75;5130349;27;963;-68
2021/05/17 09:01:48;;;;;;;;;;;;;;;21.19;53.43;101104.88;5135576;27;1430;-67
2021/05/17 09:04:34;;;;;;;;;;;;;;;21.24;53.79;101105.47;5129917;27;1025;-71
2021/05/17 09:07:30;;;;;;;;;;;;;;;21.27;53.66;101111.50;5129862;27;1322;-68
2021/05/17 09:10:17;;;;;;;;;;;;;;;21.30;54.01;101103.38;5114283;27;1366;-69
2021/05/17 09:13:03;;;;;;;;;;;;;;;21.33;54.04;101100.53;5129680;27;1967;-68
2021/05/17 09:15:51;;;;;;;;;;;;;;;21.34;54.10;101107.53;5129806;27;1315;-67
2021/05/17 09:18:37;;;;;;;;;;;;;;;21.36;54.86;101110.94;5129686;27;999;-67
2021/05/17 09:21:22;;;;;;;;;;;;;;;21.36;54.41;101119.75;5128976;27;1243;-68
2021/05/17 09:24:07;;;;;;;;;;;;;;;21.36;54.57;101119.75;5129489;27;1062;-69
2021/05/17 09:26:56;;;;;;;;;;;;;;;21.39;54.79;101129.28;5129690;27;1287;-68
2021/05/17 09:29:52;;;;;;;;;;;;;;;21.42;54.79;101121.16;5129114;27;1066;-68
2021/05/17 09:32:37;;;;;;;;;;;;;;;21.42;55.35;101121.16;5129443;27;1926;-65
2021/05/17 09:35:23;;;;;;;;;;;;;;;21.50;55.41;101113.56;5129315;27;1275;-66
2021/05/17 09:38:29;;;;;;;;;;;;;;;21.49;55.35;101119.84;5129157;27;1145;-66
2021/05/17 09:41:14;;;;;;;;;;;;;;;21.50;55.39;101127.66;5138083;27;1550;-69
2021/05/17 09:43:59;;;;;;;;;;;;;;;21.52;56.39;101124.94;5129277;27;1101;-69
2021/05/17 09:46:54;;;;;;;;;;;;;;;21.54;55.82;101123.03;5112431;27;1303;-69
2021/05/17 09:49:49;;;;;;;;;;;;;;;21.45;57.08;101116.50;5129303;27;1476;-67
2021/05/17 09:52:37;;;;;;;;;;;;;;;21.49;57.24;101114.53;5128381;27;1909;-68
2021/05/17 09:55:23;;;;;;;;;;;;;;;21.46;57.49;101127.97;5145867;27;1398;-68
2021/05/17 09:58:09;;;;;;;;;;;;;;;21.47;57.84;101140.25;5136570;27;960;-67
2021/05/17 10:01:11;;;;;;;;;;;;;;;21.48;57.95;101141.97;5129415;27;1261;-68
2021/05/17 10:04:04;;;;;;;;;;;;;;;21.47;58.13;101140.25;5148851;27;1096;-68
2021/05/17 10:06:55;;;;;;;;;;;;;;;21.46;58.25;101130.63;5147300;27;1304;-68
2021/05/17 10:09:41;;;;;;;;;;;;;;;21.50;57.68;101129.47;5111123;27;928;-69
2021/05/17 10:12:27;;;;;;;;;;;;;;;21.42;58.19;101121.16;5127153;27;1902;-69
2021/05/17 10:15:13;;;;;;;;;;;;;;;21.45;57.95;101123.63;5112131;27;1280;-69
2021/05/17 10:18:04;;;;;;;;;;;;;;;21.44;58.30;101120.09;5128182;27;1062;-70
2021/05/17 10:20:49;;;;;;;;;;;;;;;21.43;58.47;101131.63;5128822;27;1279;-68
2021/05/17 10:23:38;;;;;;;;;;;;;;;21.44;58.42;101135.16;5128424;27;1093;-69
2021/05/17 10:26:24;;;;;;;;;;;;;;;21.45;58.32;101144.81;5128254;27;1396;-69
2021/05/17 10:29:11;;;;;;;;;;;;;;;21.45;58.32;101142.16;5128396;27;989;-69
2021/05/17 10:31:58;;;;;;;;;;;;;;;21.45;58.46;101126.25;5130830;27;1247;-69
2021/05/17 10:35:07;;;;;;;;;;;;;;;21.45;58.70;101134.22;5149594;27;1042;-69
2021/05/17 10:38:13;;;;;;;;;;;;;;;21.46;58.69;101127.97;5112409;27;1107;-69
2021/05/17 10:47:08;;;;;;;;;;;;;;;21.54;59.05;101145.09;5138604;27;1299;-69
2021/05/17 10:50:09;;;;;;;;;;;;;;;21.57;59.10;101141.41;5141396;27;1618;-72
2021/05/17 10:52:54;;;;;;;;;;;;;;;21.54;60.66;101146.88;5133451;27;1878;-69
2021/05/17 10:55:47;;;;;;;;;;;;;;;21.52;59.51;101151.44;5125836;27;1235;-71
2021/05/17 11:01:55;;;;;;;;;;;;;;;21.53;59.60;101151.34;5129838;27;1335;-73
2021/05/17 11:04:46;;;;;;;;;;;;;;;21.52;59.60;101154.91;5148252;27;968;-70
2021/05/17 11:07:33;;;;;;;;;;;;;;;21.53;59.68;101153.13;5124322;28;948;-71
2021/05/17 11:10:23;;;;;;;;;;;;;;;21.53;59.78;101155.78;5111647;28;1283;-71
2021/05/17 11:13:17;;;;;;;;;;;;;;;21.53;59.58;101150.47;5126787;27;1959;-71
2021/05/17 11:16:03;;;;;;;;;;;;;;;21.53;59.66;101156.63;5127358;28;1311;-72
2021/05/17 11:18:49;;;;;;;;;;;;;;;21.53;59.78;101169.03;5145194;27;1362;-71
2021/05/17 11:21:34;;;;;;;;;;;;;;;21.54;60.45;101158.34;5147751;27;1363;-74
2021/05/17 11:24:25;;;;;;;;;;;;;;;21.39;58.19;101156.66;5139711;27;1323;-72
2021/05/17 11:27:10;;;;;;;;;;;;;;;21.31;56.95;101153.59;5142142;27;1298;-71
2021/05/17 11:29:56;;;;;;;;;;;;;;;21.37;57.20;101149.75;5129113;27;1486;-70
2021/05/17 11:32:41;;;;;;;;;;;;;;;21.41;57.12;101159.19;5126778;27;1902;-71
2021/05/17 11:35:27;;;;;;;;;;;;;;;21.43;57.65;101158.13;5138904;27;1576;-69
2021/05/17 11:38:15;;;;;;;;;;;;;;;21.44;56.74;101151.91;5126631;27;1191;-70
2021/05/17 11:41:00;;;;;;;;;;;;;;;21.44;56.29;101161.66;5133246;27;1425;-72
2021/05/17 11:43:46;;;;;;;;;;;;;;;21.38;56.98;101162.88;5129308;27;1087;-68
2021/05/17 11:46:32;;;;;;;;;;;;;;;21.13;57.12;101163.53;5113242;27;1462;-67
2021/05/17 11:49:20;;;;;;;;;;;;;;;20.89;56.55;101154.38;5127642;27;1285;-69
2021/05/17 11:52:26;;;;;;;;;;;;;;;20.97;55.58;101156.56;5129349;27;1727;-68
2021/05/17 11:55:18;;;;;;;;;;;;;;;20.98;55.40;101148.53;5114526;27;1450;-69
2021/05/17 11:58:03;;;;;;;;;;;;;;;20.99;54.94;101142.28;5135084;27;1270;-68
2021/05/17 12:00:49;;;;;;;;;;;;;;;21.07;53.57;101147.09;5138432;27;1294;-69
2021/05/17 12:03:41;;;;;;;;;;;;;;;20.94;53.74;101144.38;5130537;27;1110;-67
2021/05/17 12:06:37;;;;;;;;;;;;;;;21.03;53.01;101145.63;5110883;28;1283;-66
2021/05/17 12:09:28;;;;;;;;;;;;;;;21.10;52.28;101150.47;5132992;27;1290;-66
2021/05/17 12:12:15;;;;;;;;;;;;;;;21.31;51.28;101150.13;5147425;27;1571;-63
2021/05/17 12:15:03;;;;;;;;;;;;;;;21.34;51.39;101155.22;5131069;27;1022;-63
2021/05/17 12:17:48;;;;;;;;;;;;;;;21.36;49.82;101143.59;5120149;27;1176;-67
2021/05/17 12:20:34;;;;;;;;;;;;;;;21.52;49.75;101144.31;5130635;27;1358;-70
2021/05/17 12:23:19;;;;;;;;;;;;;;;21.58;47.99;101140.47;5130594;27;1111;-68
2021/05/17 12:26:04;;;;;;;;;;;;;;;21.62;47.42;101147.25;5138248;27;1458;-65
2021/05/17 12:28:58;;;;;;;;;;;;;;;21.60;47.35;101141.22;5150877;27;1137;-64
2021/05/17 12:31:44;;;;;;;;;;;;;;;21.56;47.58;101139.69;5150060;27;1282;-64
2021/05/17 12:34:29;;;;;;;;;;;;;;;21.56;45.82;101131.72;5149797;27;1917;-63
2021/05/17 12:37:14;;;;;;;;;;;;;;;21.59;45.64;101124.44;5150279;27;1350;-63
2021/05/17 12:40:20;;;;;;;;;;;;;;;21.58;45.58;101127.22;5150028;27;973;-65
2021/05/17 12:43:35;;;;;;;;;;;;;;;21.60;45.31;101146.50;5142543;27;1283;-65
2021/05/17 12:46:26;;;;;;;;;;;;;;;21.54;44.95;101133.63;5130029;27;1394;-66
2021/05/17 12:49:11;;;;;;;;;;;;;;;21.52;45.13;101133.72;5138243;27;1370;-63
2021/05/17 12:51:56;;;;;;;;;;;;;;;21.50;44.65;101129.47;5129460;27;1279;-64
2021/05/17 12:54:42;;;;;;;;;;;;;;;21.59;43.72;101135.06;5119260;27;1967;-66
2021/05/17 12:57:28;;;;;;;;;;;;;;;21.59;44.11;101134.19;5147775;27;860;-66
2021/05/17 13:00:14;;;;;;;;;;;;;;;21.62;43.96;101134.84;5141111;27;1314;-65
2021/05/17 13:03:02;;;;;;;;;;;;;;;21.62;46.20;101126.91;5129440;27;1119;-68
2021/05/17 13:05:51;;;;;;;;;;;;;;;21.61;47.21;101132.31;5128937;27;1263;-67
2021/05/17 13:08:36;;;;;;;;;;;;;;;21.71;47.88;101128.13;5128821;27;1033;-67
2021/05/17 13:11:23;;;;;;;;;;;;;;;21.73;47.81;101131.53;5129460;27;1279;-66
2021/05/17 13:14:17;;;;;;;;;;;;;;;21.67;48.37;101134.59;5128954;27;1997;-67
2021/05/17 13:17:04;;;;;;;;;;;;;;;21.67;49.03;101130.09;5112791;27;1513;-67
2021/05/17 13:23:19;;;;;;;;;;;;;;;21.60;49.92;101125.31;5128368;27;988;-67
2021/05/17 13:32:21;;;;;;;;;;;;;;;21.38;51.68;101131.09;5129350;27;1303;-68
2021/05/17 13:35:11;;;;;;;;;;;;;;;21.37;51.90;101136.50;5129639;27;1263;-68
2021/05/17 13:37:56;;;;;;;;;;;;;;;21.31;52.20;101123.63;5129230;27;1142;-67
2021/05/17 13:40:42;;;;;;;;;;;;;;;21.31;52.27;101128.94;5129258;27;1349;-66
2021/05/17 13:43:27;;;;;;;;;;;;;;;21.32;52.20;101127.97;5129478;27;1191;-68
2021/05/17 13:46:12;;;;;;;;;;;;;;;21.32;52.82;101130.59;5113378;27;1362;-68
2021/05/17 13:48:58;;;;;;;;;;;;;;;21.35;52.54;101125.97;5128762;27;1592;-69
2021/05/17 13:51:43;;;;;;;;;;;;;;;21.40;52.30;101134.47;5129146;27;1422;-68
2021/05/17 13:54:28;;;;;;;;;;;;;;;21.41;51.88;101135.34;5113692;27;1918;-69
2021/05/17 13:57:14;;;;;;;;;;;;;;;21.38;51.85;101140.81;5129360;27;1299;-65
2021/05/17 14:00:00;;;;;;;;;;;;;;;21.40;51.02;101144.25;5129362;27;1195;-67
2021/05/17 14:02:46;;;;;;;;;;;;;;;21.40;50.76;101133.66;5128631;27;1115;-68
2021/05/17 14:05:31;;;;;;;;;;;;;;;21.37;50.47;101150.56;5128643;27;1266;-67
2021/05/17 14:08:16;;;;;;;;;;;;;;;21.35;51.50;101146.31;5128507;27;1155;-68
2021/05/17 14:11:03;;;;;;;;;;;;;;;21.29;51.04;101147.56;5112998;27;1280;-68
2021/05/17 14:13:50;;;;;;;;;;;;;;;21.30;51.12;101153.72;5128565;27;1905;-68
2021/05/17 14:16:36;;;;;;;;;;;;;;;21.28;50.98;101139.72;5128454;27;1583;-68
2021/05/17 14:19:22;;;;;;;;;;;;;;;21.20;50.95;101142.81;5128396;27;950;-68
2021/05/17 14:22:10;;;;;;;;;;;;;;;21.20;50.61;101135.72;5128580;27;1287;-67
2021/05/17 14:24:55;;;;;;;;;;;;;;;21.19;50.65;101144.59;5128665;27;1034;-68
2021/05/17 14:27:40;;;;;;;;;;;;;;;21.18;51.19;101137.63;5113132;27;671;-67
2021/05/17 14:30:26;;;;;;;;;;;;;;;21.15;51.31;101140.47;5128706;27;1301;-67
2021/05/17 14:33:11;;;;;;;;;;;;;;;21.12;51.33;101132.69;5128249;27;1963;-67
2021/05/17 14:35:57;;;;;;;;;;;;;;;21.09;51.40;101124.94;5128374;27;1281;-68
2021/05/17 14:38:43;;;;;;;;;;;;;;;21.12;51.35;101116.81;5128455;27;1006;-67
2021/05/17 14:41:28;;;;;;;;;;;;;;;21.15;51.07;101121.91;5128471;27;1325;-67
2021/05/17 14:44:14;;;;;;;;;;;;;;;21.17;51.33;101121.81;5128320;27;1051;-67
2021/05/17 14:46:59;;;;;;;;;;;;;;;21.20;51.26;101116.31;5128388;27;1267;-68
2021/05/17 14:49:45;;;;;;;;;;;;;;;21.25;51.57;101109.78;5128045;27;1500;-67
2021/05/17 14:52:30;;;;;;;;;;;;;;;21.28;51.27;101110.56;5112430;27;682;-67
2021/05/17 14:55:15;;;;;;;;;;;;;;;21.34;50.82;101113.66;5127361;27;1906;-67
2021/05/17 14:58:01;;;;;;;;;;;;;;;21.25;51.05;101107.13;5127477;27;1078;-67
2021/05/17 15:00:46;;;;;;;;;;;;;;;21.30;50.89;101117.47;5138928;27;1259;-68
2021/05/17 15:03:33;;;;;;;;;;;;;;;21.29;50.56;101117.53;5132174;27;968;-67
2021/05/17 15:06:18;;;;;;;;;;;;;;;21.36;50.38;101110.94;5148550;27;1345;-70
2021/05/17 15:09:04;;;;;;;;;;;;;;;21.35;50.72;101110.06;5126217;27;1426;-67